createdAt,value
2023-02-01T00:00:28.961Z,100454.34
2023-02-01T00:01:31.869Z,100443.63
2023-02-01T00:02:33.580Z,100455.22
2023-02-01T00:03:36.263Z,100449.81
2023-02-01T00:04:41.607Z,100463.91
2023-02-01T00:05:43.231Z,100459.22
2023-02-01T00:06:45.753Z,100444.63
2023-02-01T00:07:48.163Z,100459.59
2023-02-01T00:08:50.851Z,100469.66
2023-02-01T00:09:53.467Z,100461.09
2023-02-01T00:11:04.180Z,100460.97
2023-02-01T00:12:07.047Z,100452.50
2023-02-01T00:13:08.720Z,100468.34
2023-02-01T00:14:11.792Z,100468.22
2023-02-01T00:15:13.963Z,100462.34
2023-02-01T00:16:18.479Z,100440.91
2023-02-01T00:17:20.358Z,100470.13
2023-02-01T00:18:23.056Z,100461.19
2023-02-01T00:19:24.812Z,100461.44
2023-02-01T00:20:27.709Z,100482.97
2023-02-01T00:21:30.345Z,100459.72
2023-02-01T00:22:33.025Z,100468.84
2023-02-01T00:23:35.942Z,100467.63
2023-02-01T00:24:38.558Z,100425.56
2023-02-01T00:25:40.841Z,100454.81
2023-02-01T00:26:46.878Z,100450.34
2023-02-01T00:27:50.523Z,100461.66
2023-02-01T00:28:53.293Z,100429.78
2023-02-01T00:29:56.483Z,100454.41
2023-02-01T00:30:58.886Z,100472.09
2023-02-01T00:32:03.447Z,100464.59
2023-02-01T00:33:05.158Z,100478.34
2023-02-01T00:34:08.160Z,100445.03
2023-02-01T00:35:10.355Z,100453.94
2023-02-01T00:36:13.548Z,100454.13
2023-02-01T00:37:15.183Z,100455.41
2023-02-01T00:38:17.821Z,100449.19
2023-02-01T00:39:19.449Z,100454.59
2023-02-01T00:40:22.820Z,100457.91
2023-02-01T00:41:24.877Z,100462.41
2023-02-01T00:42:28.857Z,100445.03
2023-02-01T00:43:33.731Z,100448.69
2023-02-01T00:44:36.815Z,100444.00
2023-02-01T00:45:38.408Z,100427.91
2023-02-01T00:46:40.993Z,100467.09
2023-02-01T00:47:42.760Z,100449.59
2023-02-01T00:48:45.416Z,100445.88
2023-02-01T00:49:47.058Z,100465.47
2023-02-01T00:50:49.922Z,100448.44
2023-02-01T00:51:51.617Z,100475.44
2023-02-01T00:52:54.221Z,100470.59
2023-02-01T00:53:56.272Z,100437.31
2023-02-01T00:54:59.108Z,100474.38
2023-02-01T00:56:01.224Z,100472.06
2023-02-01T00:57:03.840Z,100448.50
2023-02-01T00:58:07.083Z,100464.78
2023-02-01T00:59:12.451Z,100448.38
2023-02-01T01:00:15.134Z,100467.59
2023-02-01T01:01:19.705Z,100453.19
2023-02-01T01:02:21.426Z,100465.72
2023-02-01T01:03:24.187Z,100454.34
2023-02-01T01:04:26.815Z,100425.59
2023-02-01T01:05:29.767Z,100450.34
2023-02-01T01:06:34.941Z,100468.66
2023-02-01T01:07:36.539Z,100449.53
2023-02-01T01:08:43.315Z,100462.66
2023-02-01T01:09:44.887Z,100468.28
2023-02-01T01:10:47.401Z,100475.66
2023-02-01T01:11:52.082Z,100462.53
2023-02-01T01:12:53.674Z,100466.28
2023-02-01T01:13:59.587Z,100445.66
2023-02-01T01:15:01.262Z,100458.91
2023-02-01T01:16:04.684Z,100453.16
2023-02-01T01:17:06.326Z,100454.69
2023-02-01T01:18:09.931Z,100426.44
2023-02-01T01:19:12.894Z,100462.78
2023-02-01T01:20:14.609Z,100465.34
2023-02-01T01:21:18.041Z,100463.06
2023-02-01T01:22:20.650Z,100468.47
2023-02-01T01:23:22.217Z,100465.19
2023-02-01T01:24:24.737Z,100456.66
2023-02-01T01:25:26.520Z,100463.69
2023-02-01T01:26:31.017Z,100443.53
2023-02-01T01:27:32.674Z,100445.72
2023-02-01T01:28:35.702Z,100424.38
2023-02-01T01:29:38.732Z,100433.53
2023-02-01T01:30:41.777Z,100435.66
2023-02-01T01:31:44.355Z,100438.00
2023-02-01T01:32:46.037Z,100445.84
2023-02-01T01:33:50.441Z,100446.09
2023-02-01T01:34:52.018Z,100435.88
2023-02-01T01:35:54.632Z,100425.50
2023-02-01T01:36:56.333Z,100444.56
2023-02-01T01:37:59.799Z,100436.00
2023-02-01T01:39:02.400Z,100428.19
2023-02-01T01:40:04.672Z,100432.28
2023-02-01T01:41:07.520Z,100437.78
2023-02-01T01:42:13.344Z,100442.13
2023-02-01T01:43:15.694Z,100426.88
2023-02-01T01:45:06.356Z,100438.22
2023-02-01T01:46:07.939Z,100417.03
2023-02-01T01:47:11.377Z,100401.28
2023-02-01T01:48:17.240Z,100414.78
2023-02-01T01:49:22.964Z,100407.78
2023-02-01T01:50:29.854Z,100417.72
2023-02-01T01:51:34.814Z,100432.16
2023-02-01T01:52:38.713Z,100415.53
2023-02-01T01:53:47.079Z,100395.38
2023-02-01T01:54:51.816Z,100409.19
2023-02-01T01:55:56.344Z,100440.38
2023-02-01T01:57:02.827Z,100423.09
2023-02-01T01:58:10.910Z,100419.50
2023-02-01T01:59:13.409Z,100406.25
2023-02-01T02:00:21.540Z,100392.53
2023-02-01T02:01:26.085Z,100413.16
2023-02-01T02:02:28.795Z,100428.28
2023-02-01T02:03:35.081Z,100405.28
2023-02-01T02:04:38.386Z,100403.19
2023-02-01T02:05:40.327Z,100416.09
2023-02-01T02:06:48.921Z,100423.22
2023-02-01T02:07:54.259Z,100407.50
2023-02-01T02:08:57.231Z,100411.94
2023-02-01T02:10:01.224Z,100415.22
2023-02-01T02:11:04.134Z,100403.75
2023-02-01T02:12:05.737Z,100400.25
2023-02-01T02:13:08.570Z,100414.41
2023-02-01T02:14:13.883Z,100419.66
2023-02-01T02:15:19.133Z,100405.47
2023-02-01T02:16:46.694Z,100387.56
2023-02-01T02:18:00.453Z,100398.47
2023-02-01T02:19:21.789Z,100408.66
2023-02-01T02:20:47.816Z,100375.59
2023-02-01T02:22:07.928Z,100398.19
2023-02-01T02:23:43.479Z,100386.69
2023-02-01T02:25:03.132Z,100402.66
2023-02-01T02:26:35.689Z,100402.19
2023-02-01T02:27:53.511Z,100399.50
2023-02-01T02:29:31.997Z,100386.47
2023-02-01T02:31:01.679Z,100392.50
2023-02-01T02:32:46.545Z,100413.22
2023-02-01T02:33:58.617Z,100414.94
2023-02-01T02:35:09.958Z,100417.66
2023-02-01T02:36:20.588Z,100399.94
2023-02-01T02:37:34.419Z,100410.59
2023-02-01T02:38:43.078Z,100398.53
2023-02-01T02:39:55.459Z,100406.06
2023-02-01T02:41:07.967Z,100382.75
2023-02-01T02:42:34.012Z,100403.94
2023-02-01T02:44:04.354Z,100402.63
2023-02-01T02:45:28.657Z,100404.13
2023-02-01T02:46:55.591Z,100406.91
2023-02-01T02:48:05.247Z,100393.81
2023-02-01T02:49:13.502Z,100387.09
2023-02-01T02:50:42.849Z,100389.38
2023-02-01T02:52:10.516Z,100376.72
2023-02-01T02:53:34.669Z,100398.81
2023-02-01T02:54:52.084Z,100383.97
2023-02-01T02:56:12.315Z,100407.88
2023-02-01T02:57:36.965Z,100372.50
2023-02-01T02:58:57.187Z,100403.06
2023-02-01T03:00:21.085Z,100404.38
2023-02-01T03:01:41.454Z,100385.63
2023-02-01T03:03:02.220Z,100403.78
2023-02-01T03:04:09.881Z,100391.34
2023-02-01T03:05:13.039Z,100378.56
2023-02-01T03:06:19.696Z,100396.13
2023-02-01T03:07:56.704Z,100370.06
2023-02-01T03:09:00.500Z,100409.59
2023-02-01T03:10:06.563Z,100403.84
2023-02-01T03:11:11.963Z,100403.56
2023-02-01T03:12:34.409Z,100410.81
2023-02-01T03:13:41.686Z,100395.78
2023-02-01T03:14:48.898Z,100370.03
2023-02-01T03:15:54.839Z,100388.75
2023-02-01T03:17:05.957Z,100398.94
2023-02-01T03:18:15.211Z,100409.63
2023-02-01T03:19:21.656Z,100401.75
2023-02-01T03:20:26.870Z,100359.94
2023-02-01T03:21:36.026Z,100388.75
2023-02-01T03:22:40.806Z,100398.09
2023-02-01T03:23:46.519Z,100401.25
2023-02-01T03:24:53.095Z,100403.03
2023-02-01T03:25:59.972Z,100409.38
2023-02-01T03:27:06.883Z,100413.09
2023-02-01T03:28:12.232Z,100395.00
2023-02-01T03:29:17.343Z,100385.78
2023-02-01T03:30:24.166Z,100381.06
2023-02-01T03:32:29.022Z,100375.91
2023-02-01T03:33:31.652Z,100385.31
2023-02-01T03:34:34.715Z,100374.84
2023-02-01T03:35:44.835Z,100385.84
2023-02-01T03:36:52.874Z,100373.16
2023-02-01T03:37:57.949Z,100381.25
2023-02-01T03:39:04.934Z,100374.94
2023-02-01T03:40:09.489Z,100376.81
2023-02-01T03:41:17.700Z,100357.88
2023-02-01T03:42:22.529Z,100350.97
2023-02-01T03:43:29.743Z,100360.34
2023-02-01T03:44:36.127Z,100369.09
2023-02-01T03:45:43.773Z,100351.28
2023-02-01T03:46:51.873Z,100354.56
2023-02-01T03:47:58.144Z,100352.28
2023-02-01T03:49:05.091Z,100345.50
2023-02-01T03:50:10.583Z,100342.91
2023-02-01T03:51:15.749Z,100325.38
2023-02-01T03:52:21.554Z,100310.47
2023-02-01T03:53:26.373Z,100352.44
2023-02-01T03:54:29.764Z,100336.50
2023-02-01T03:55:33.541Z,100349.88
2023-02-01T03:56:39.397Z,100342.91
2023-02-01T03:57:46.271Z,100335.88
2023-02-01T03:58:59.740Z,100338.09
2023-02-01T04:00:08.433Z,100344.75
2023-02-01T04:01:10.277Z,100322.03
2023-02-01T04:02:13.715Z,100342.53
2023-02-01T04:03:15.316Z,100336.66
2023-02-01T04:04:21.679Z,100343.22
2023-02-01T04:05:23.864Z,100341.44
2023-02-01T04:06:28.334Z,100334.28
2023-02-01T04:07:29.889Z,100330.50
2023-02-01T04:08:32.487Z,100328.78
2023-02-01T04:09:34.116Z,100337.66
2023-02-01T04:10:36.894Z,100316.81
2023-02-01T04:11:38.512Z,100331.09
2023-02-01T04:12:41.712Z,100330.09
2023-02-01T04:13:46.820Z,100323.31
2023-02-01T04:14:49.449Z,100331.09
2023-02-01T04:15:51.236Z,100320.44
2023-02-01T04:16:55.272Z,100340.34
2023-02-01T04:17:57.024Z,100329.59
2023-02-01T04:18:59.823Z,100324.78
2023-02-01T04:20:01.813Z,100337.69
2023-02-01T04:21:05.487Z,100313.63
2023-02-01T04:22:08.610Z,100331.44
2023-02-01T04:23:11.238Z,100331.09
2023-02-01T04:24:12.922Z,100316.34
2023-02-01T04:25:15.620Z,100334.28
2023-02-01T04:26:17.789Z,100327.22
2023-02-01T04:27:20.378Z,100306.34
2023-02-01T04:28:21.998Z,100311.56
2023-02-01T04:29:24.697Z,100299.56
2023-02-01T04:30:26.346Z,100323.56
2023-02-01T04:31:29.198Z,100328.00
2023-02-01T04:32:30.861Z,100315.47
2023-02-01T04:33:33.372Z,100326.84
2023-02-01T04:34:34.982Z,100310.28
2023-02-01T04:35:37.575Z,100317.59
2023-02-01T04:36:40.092Z,100321.44
2023-02-01T04:37:43.009Z,100309.31
2023-02-01T04:38:45.886Z,100293.44
2023-02-01T04:39:47.517Z,100290.91
2023-02-01T04:40:50.623Z,100303.09
2023-02-01T04:41:52.371Z,100306.38
2023-02-01T04:42:55.084Z,100280.97
2023-02-01T04:43:56.718Z,100298.22
2023-02-01T04:44:59.252Z,100291.66
2023-02-01T04:46:00.921Z,100262.41
2023-02-01T04:47:03.565Z,100284.50
2023-02-01T04:48:05.810Z,100295.22
2023-02-01T04:49:08.532Z,100291.66
2023-02-01T04:50:11.518Z,100283.44
2023-02-01T04:51:16.093Z,100269.88
2023-02-01T04:52:17.735Z,100284.84
2023-02-01T04:53:21.679Z,100273.13
2023-02-01T04:54:23.260Z,100281.81
2023-02-01T04:55:26.006Z,100271.31
2023-02-01T04:56:27.656Z,100252.00
2023-02-01T04:57:30.552Z,100272.41
2023-02-01T04:58:32.210Z,100269.38
2023-02-01T04:59:36.319Z,100276.81
2023-02-01T05:00:38.184Z,100264.63
2023-02-01T05:01:41.053Z,100253.50
2023-02-01T05:02:42.715Z,100241.09
2023-02-01T05:03:45.470Z,100245.44
2023-02-01T05:04:47.245Z,100224.00
2023-02-01T05:05:50.458Z,100250.09
2023-02-01T05:06:52.209Z,100209.75
2023-02-01T05:07:55.002Z,100235.84
2023-02-01T05:08:57.931Z,100261.41
2023-02-01T05:10:00.588Z,100245.34
2023-02-01T05:11:03.717Z,100242.38
2023-02-01T05:12:24.335Z,100246.25
2023-02-01T05:13:44.558Z,100255.59
2023-02-01T05:14:48.767Z,100261.47
2023-02-01T05:15:51.504Z,100254.25
2023-02-01T05:16:54.137Z,100253.34
2023-02-01T05:17:55.839Z,100247.72
2023-02-01T05:18:58.384Z,100249.34
2023-02-01T05:20:00.225Z,100241.38
2023-02-01T05:21:03.123Z,100248.53
2023-02-01T05:22:04.771Z,100249.09
2023-02-01T05:23:07.616Z,100253.69
2023-02-01T05:24:10.918Z,100256.22
2023-02-01T05:25:13.525Z,100250.03
2023-02-01T05:26:15.264Z,100253.13
2023-02-01T05:27:18.062Z,100243.63
2023-02-01T05:28:19.899Z,100240.09
2023-02-01T05:29:23.062Z,100265.53
2023-02-01T05:30:24.956Z,100256.84
2023-02-01T05:31:28.032Z,100256.38
2023-02-01T05:32:29.780Z,100253.38
2023-02-01T05:33:32.365Z,100231.47
2023-02-01T05:34:33.899Z,100261.00
2023-02-01T05:35:36.505Z,100257.06
2023-02-01T05:36:38.248Z,100225.03
2023-02-01T05:37:40.777Z,100266.38
2023-02-01T05:38:42.451Z,100261.94
2023-02-01T05:39:46.554Z,100255.22
2023-02-01T05:40:50.756Z,100257.34
2023-02-01T05:41:53.618Z,100246.56
2023-02-01T05:42:55.333Z,100238.06
2023-02-01T05:43:57.809Z,100249.84
2023-02-01T05:44:59.450Z,100252.41
2023-02-01T05:46:02.281Z,100254.88
2023-02-01T05:47:05.103Z,100252.75
2023-02-01T05:48:06.710Z,100246.06
2023-02-01T05:49:09.431Z,100248.13
2023-02-01T05:50:12.332Z,100252.16
2023-02-01T05:51:14.216Z,100250.31
2023-02-01T05:52:20.205Z,100235.75
2023-02-01T05:53:21.954Z,100226.28
2023-02-01T05:54:24.447Z,100247.13
2023-02-01T05:55:27.440Z,100235.75
2023-02-01T05:56:30.017Z,100249.34
2023-02-01T05:57:31.595Z,100228.06
2023-02-01T05:58:34.110Z,100222.84
2023-02-01T05:59:37.035Z,100215.13
2023-02-01T06:00:39.615Z,100230.81
2023-02-01T06:01:41.231Z,100211.03
2023-02-01T06:02:43.991Z,100225.69
2023-02-01T06:03:45.852Z,100221.72
2023-02-01T06:04:51.321Z,100226.75
2023-02-01T06:05:52.973Z,100234.84
2023-02-01T06:06:55.643Z,100239.28
2023-02-01T06:07:57.903Z,100234.09
2023-02-01T06:09:01.169Z,100239.81
2023-02-01T06:10:02.793Z,100247.19
2023-02-01T06:11:07.351Z,100226.97
2023-02-01T06:12:09.202Z,100244.47
2023-02-01T06:13:11.977Z,100243.53
2023-02-01T06:14:13.628Z,100236.59
2023-02-01T06:15:19.635Z,100228.75
2023-02-01T06:16:21.378Z,100234.47
2023-02-01T06:17:24.062Z,100221.38
2023-02-01T06:18:26.171Z,100225.31
2023-02-01T06:19:28.680Z,100240.44
2023-02-01T06:20:30.520Z,100241.19
2023-02-01T06:21:34.479Z,100237.50
2023-02-01T06:22:37.014Z,100225.56
2023-02-01T06:23:39.688Z,100213.44
2023-02-01T06:24:44.432Z,100211.91
2023-02-01T06:25:46.161Z,100215.84
2023-02-01T06:26:51.428Z,100212.06
2023-02-01T06:27:53.307Z,100210.91
2023-02-01T06:28:56.185Z,100202.41
2023-02-01T06:29:57.765Z,100227.13
2023-02-01T06:31:07.463Z,100221.25
2023-02-01T06:32:10.175Z,100233.84
2023-02-01T06:33:12.882Z,100185.69
2023-02-01T06:34:14.976Z,100192.41
2023-02-01T06:35:18.019Z,100202.56
2023-02-01T06:36:21.708Z,100217.81
2023-02-01T06:37:25.835Z,100220.16
2023-02-01T06:38:28.108Z,100232.13
2023-02-01T06:39:30.689Z,100197.34
2023-02-01T06:40:32.263Z,100216.81
2023-02-01T06:41:35.802Z,100210.03
2023-02-01T06:42:39.107Z,100220.44
2023-02-01T06:43:45.003Z,100195.63
2023-02-01T06:44:47.880Z,100181.16
2023-02-01T06:45:49.559Z,100211.03
2023-02-01T06:46:52.174Z,100184.59
2023-02-01T06:47:53.868Z,100196.38
2023-02-01T06:48:56.875Z,100190.97
2023-02-01T06:49:58.508Z,100228.63
2023-02-01T06:51:04.004Z,100202.41
2023-02-01T06:52:05.719Z,100227.06
2023-02-01T06:53:08.380Z,100215.91
2023-02-01T06:54:11.105Z,100195.06
2023-02-01T06:55:15.978Z,100198.66
2023-02-01T06:56:18.787Z,100219.44
2023-02-01T06:57:20.383Z,100195.38
2023-02-01T06:58:24.707Z,100212.25
2023-02-01T06:59:27.540Z,100196.94
2023-02-01T07:00:30.992Z,100210.63
2023-02-01T07:01:33.139Z,100172.53
2023-02-01T07:02:36.014Z,100182.47
2023-02-01T07:03:38.651Z,100206.84
2023-02-01T07:04:41.311Z,100193.44
2023-02-01T07:05:43.055Z,100211.75
2023-02-01T07:06:45.842Z,100173.13
2023-02-01T07:07:48.798Z,100199.41
2023-02-01T07:08:51.775Z,100204.38
2023-02-01T07:09:54.426Z,100189.56
2023-02-01T07:10:56.132Z,100169.66
2023-02-01T07:11:58.947Z,100168.44
2023-02-01T07:13:00.816Z,100174.94
2023-02-01T07:14:04.793Z,100162.47
2023-02-01T07:15:07.857Z,100199.81
2023-02-01T07:16:13.498Z,100175.09
2023-02-01T07:17:16.084Z,100197.00
2023-02-01T07:18:22.317Z,100174.56
2023-02-01T07:19:24.980Z,100187.25
2023-02-01T07:20:26.720Z,100215.66
2023-02-01T07:21:29.974Z,100189.63
2023-02-01T07:22:32.173Z,100205.59
2023-02-01T07:23:34.969Z,100205.03
2023-02-01T07:24:36.637Z,100195.22
2023-02-01T07:25:39.273Z,100198.41
2023-02-01T07:26:41.210Z,100190.13
2023-02-01T07:27:43.958Z,100176.22
2023-02-01T07:28:47.706Z,100203.22
2023-02-01T07:29:50.735Z,100213.44
2023-02-01T07:30:53.668Z,100183.16
2023-02-01T07:31:56.447Z,100175.81
2023-02-01T07:33:02.005Z,100217.88
2023-02-01T07:34:05.966Z,100210.94
2023-02-01T07:35:09.161Z,100214.03
2023-02-01T07:36:13.475Z,100196.28
2023-02-01T07:37:16.033Z,100179.16
2023-02-01T07:38:20.506Z,100179.16
2023-02-01T07:39:23.086Z,100190.31
2023-02-01T07:40:29.605Z,100202.91
2023-02-01T07:41:35.085Z,100174.25
2023-02-01T07:42:36.974Z,100196.34
2023-02-01T07:43:39.973Z,100184.34
2023-02-01T07:44:45.030Z,100153.97
2023-02-01T07:45:54.044Z,100198.41
2023-02-01T07:46:58.295Z,100202.41
2023-02-01T07:48:01.783Z,100174.19
2023-02-01T07:49:04.472Z,100182.63
2023-02-01T07:50:06.521Z,100179.50
2023-02-01T07:51:14.053Z,100197.84
2023-02-01T07:52:17.024Z,100207.91
2023-02-01T07:53:19.663Z,100218.47
2023-02-01T07:54:22.524Z,100171.97
2023-02-01T07:55:25.765Z,100218.03
2023-02-01T07:56:28.572Z,100201.28
2023-02-01T07:57:30.282Z,100180.91
2023-02-01T07:58:38.391Z,100173.94
2023-02-01T08:00:02.347Z,100167.13
2023-02-01T08:01:20.847Z,100183.84
2023-02-01T08:02:22.767Z,100179.34
2023-02-01T08:03:26.748Z,100190.38
2023-02-01T08:04:31.443Z,100211.09
2023-02-01T08:05:34.713Z,100206.75
2023-02-01T08:06:37.562Z,100181.94
2023-02-01T08:07:39.209Z,100193.16
2023-02-01T08:08:46.242Z,100188.91
2023-02-01T08:09:47.903Z,100226.06
2023-02-01T08:10:50.662Z,100216.59
2023-02-01T08:11:53.178Z,100188.50
2023-02-01T08:12:59.165Z,100220.91
2023-02-01T08:14:02.062Z,100221.66
2023-02-01T08:15:04.413Z,100200.78
2023-02-01T08:16:10.975Z,100187.53
2023-02-01T08:17:13.531Z,100221.97
2023-02-01T08:18:17.267Z,100236.13
2023-02-01T08:19:20.271Z,100219.03
2023-02-01T08:20:23.883Z,100230.84
2023-02-01T08:21:37.691Z,100222.56
2023-02-01T08:22:39.525Z,100201.75
2023-02-01T08:23:43.443Z,100235.97
2023-02-01T08:24:45.332Z,100259.75
2023-02-01T08:25:51.312Z,100233.81
2023-02-01T08:26:55.629Z,100197.06
2023-02-01T08:27:57.491Z,100207.00
2023-02-01T08:29:05.820Z,100206.81
2023-02-01T08:30:09.107Z,100221.69
2023-02-01T08:31:15.971Z,100210.00
2023-02-01T08:32:21.401Z,100224.94
2023-02-01T08:33:23.105Z,100207.00
2023-02-01T08:34:25.820Z,100222.88
2023-02-01T08:35:41.521Z,100208.94
2023-02-01T08:36:45.585Z,100232.38
2023-02-01T08:37:48.079Z,100235.06
2023-02-01T08:38:49.946Z,100242.59
2023-02-01T08:39:52.453Z,100250.44
2023-02-01T08:40:53.975Z,100250.50
2023-02-01T08:42:10.425Z,100227.16
2023-02-01T08:43:12.941Z,100223.22
2023-02-01T08:44:15.488Z,100218.06
2023-02-01T08:45:17.278Z,100211.84
2023-02-01T08:46:21.154Z,100187.88
2023-02-01T08:47:23.448Z,100240.81
2023-02-01T08:48:26.076Z,100203.03
2023-02-01T08:49:27.652Z,100228.25
2023-02-01T08:50:30.394Z,100228.09
2023-02-01T08:51:31.987Z,100226.22
2023-02-01T08:52:35.462Z,100184.72
2023-02-01T08:53:41.108Z,100226.56
2023-02-01T08:54:42.915Z,100231.78
2023-02-01T08:55:47.617Z,100222.41
2023-02-01T08:56:50.207Z,100216.91
2023-02-01T08:57:51.825Z,100215.59
2023-02-01T08:58:54.496Z,100227.91
2023-02-01T08:59:56.044Z,100217.44
2023-02-01T09:00:58.873Z,100211.06
2023-02-01T09:02:03.136Z,100214.16
2023-02-01T09:03:05.759Z,100197.81
2023-02-01T09:04:07.542Z,100202.44
2023-02-01T09:05:11.697Z,100222.25
2023-02-01T09:06:16.846Z,100208.19
2023-02-01T09:07:18.818Z,100227.75
2023-02-01T09:08:21.564Z,100219.41
2023-02-01T09:09:23.499Z,100243.22
2023-02-01T09:10:35.315Z,100237.91
2023-02-01T09:11:38.205Z,100210.56
2023-02-01T09:12:39.932Z,100230.31
2023-02-01T09:13:42.745Z,100221.25
2023-02-01T09:14:44.309Z,100220.25
2023-02-01T09:15:47.115Z,100238.16
2023-02-01T09:16:48.713Z,100243.00
2023-02-01T09:17:52.687Z,100242.28
2023-02-01T09:18:56.607Z,100246.44
2023-02-01T09:20:17.364Z,100233.31
2023-02-01T09:21:20.048Z,100234.63
2023-02-01T09:22:21.668Z,100236.59
2023-02-01T09:23:24.353Z,100240.56
2023-02-01T09:24:26.228Z,100265.28
2023-02-01T09:25:29.341Z,100236.88
2023-02-01T09:26:33.215Z,100268.31
2023-02-01T09:27:35.967Z,100240.28
2023-02-01T09:28:38.510Z,100247.41
2023-02-01T09:29:40.050Z,100235.41
2023-02-01T09:30:42.672Z,100242.19
2023-02-01T09:31:57.438Z,100261.53
2023-02-01T09:33:07.019Z,100255.63
2023-02-01T09:34:09.012Z,100250.97
2023-02-01T09:35:11.598Z,100251.72
2023-02-01T09:36:13.370Z,100239.09
2023-02-01T09:37:16.028Z,100234.59
2023-02-01T09:38:18.633Z,100229.34
2023-02-01T09:39:20.676Z,100249.34
2023-02-01T09:40:24.439Z,100256.19
2023-02-01T09:41:38.807Z,100260.38
2023-02-01T09:43:09.946Z,100267.41
2023-02-01T09:44:18.176Z,100278.09
2023-02-01T09:45:26.177Z,100243.34
2023-02-01T09:46:31.381Z,100243.69
2023-02-01T09:47:33.914Z,100264.97
2023-02-01T09:48:41.727Z,100242.84
2023-02-01T09:49:51.548Z,100259.16
2023-02-01T09:50:58.085Z,100220.16
2023-02-01T09:52:04.455Z,100232.28
2023-02-01T09:53:13.978Z,100266.59
2023-02-01T09:54:19.431Z,100270.72
2023-02-01T09:55:28.784Z,100244.66
2023-02-01T09:56:43.790Z,100245.78
2023-02-01T09:57:53.112Z,100252.91
2023-02-01T09:59:03.701Z,100245.13
2023-02-01T10:00:16.339Z,100244.47
2023-02-01T10:01:26.610Z,100233.06
2023-02-01T10:02:37.814Z,100229.16
2023-02-01T10:03:44.177Z,100252.47
2023-02-01T10:04:47.854Z,100244.28
2023-02-01T10:06:07.300Z,100247.78
2023-02-01T10:07:30.040Z,100258.31
2023-02-01T10:08:39.605Z,100262.56
2023-02-01T10:09:59.636Z,100260.59
2023-02-01T10:11:12.615Z,100216.94
2023-02-01T10:12:49.251Z,100241.31
2023-02-01T10:13:58.371Z,100220.72
2023-02-01T10:15:10.651Z,100255.59
2023-02-01T10:16:29.443Z,100230.56
2023-02-01T10:17:47.477Z,100245.00
2023-02-01T10:19:10.036Z,100255.47
2023-02-01T10:20:25.934Z,100249.59
2023-02-01T10:21:44.999Z,100262.47
2023-02-01T10:23:16.295Z,100270.31
2023-02-01T10:24:36.411Z,100262.34
2023-02-01T10:25:50.787Z,100254.63
2023-02-01T10:27:01.598Z,100264.19
2023-02-01T10:28:05.211Z,100264.44
2023-02-01T10:29:18.049Z,100267.78
2023-02-01T10:30:24.018Z,100252.22
2023-02-01T10:31:28.847Z,100265.28
2023-02-01T10:32:33.791Z,100249.94
2023-02-01T10:33:41.111Z,100264.16
2023-02-01T10:34:47.910Z,100238.28
2023-02-01T10:35:57.597Z,100228.53
2023-02-01T10:37:02.506Z,100254.88
2023-02-01T10:38:28.247Z,100266.47
2023-02-01T10:39:30.849Z,100271.56
2023-02-01T10:40:33.705Z,100269.66
2023-02-01T10:41:38.527Z,100255.00
2023-02-01T10:42:40.729Z,100264.63
2023-02-01T10:43:45.204Z,100251.69
2023-02-01T10:44:49.143Z,100238.78
2023-02-01T10:45:51.860Z,100271.31
2023-02-01T10:46:53.616Z,100256.38
2023-02-01T10:47:58.409Z,100256.06
2023-02-01T10:49:07.437Z,100248.28
2023-02-01T10:50:20.449Z,100256.59
2023-02-01T10:51:26.768Z,100252.75
2023-02-01T10:52:37.882Z,100279.44
2023-02-01T10:53:46.575Z,100255.72
2023-02-01T10:54:51.232Z,100260.34
2023-02-01T10:55:55.042Z,100255.94
2023-02-01T10:57:00.450Z,100245.31
2023-02-01T10:58:05.302Z,100255.91
2023-02-01T10:59:16.578Z,100270.94
2023-02-01T11:00:21.318Z,100263.88
2023-02-01T11:01:30.505Z,100240.78
2023-02-01T11:02:37.069Z,100256.56
2023-02-01T11:03:41.963Z,100257.94
2023-02-01T11:04:44.964Z,100252.22
2023-02-01T11:05:49.773Z,100238.88
2023-02-01T11:06:55.989Z,100256.59
2023-02-01T11:08:01.045Z,100251.16
2023-02-01T11:09:14.078Z,100257.91
2023-02-01T11:10:38.768Z,100251.50
2023-02-01T11:11:55.955Z,100244.41
2023-02-01T11:12:58.677Z,100257.25
2023-02-01T11:14:03.360Z,100253.56
2023-02-01T11:15:19.810Z,100253.81
2023-02-01T11:16:22.881Z,100229.53
2023-02-01T11:17:32.603Z,100247.84
2023-02-01T11:18:39.435Z,100231.44
2023-02-01T11:19:45.509Z,100212.66
2023-02-01T11:20:53.049Z,100227.09
2023-02-01T11:21:59.602Z,100245.59
2023-02-01T11:23:03.504Z,100220.97
2023-02-01T11:24:10.333Z,100215.00
2023-02-01T11:25:18.021Z,100256.88
2023-02-01T11:26:25.575Z,100243.16
2023-02-01T11:27:28.409Z,100225.00
2023-02-01T11:28:33.553Z,100221.16
2023-02-01T11:29:39.742Z,100240.91
2023-02-01T11:30:45.324Z,100198.53
2023-02-01T11:31:48.507Z,100206.72
2023-02-01T11:32:51.345Z,100244.03
2023-02-01T11:33:58.260Z,100208.38
2023-02-01T11:35:04.338Z,100206.19
2023-02-01T11:36:13.566Z,100218.13
2023-02-01T11:37:21.331Z,100202.44
2023-02-01T11:38:30.119Z,100225.31
2023-02-01T11:39:33.813Z,100228.84
2023-02-01T11:40:38.982Z,100192.69
2023-02-01T11:41:56.007Z,100207.81
2023-02-01T11:42:59.865Z,100196.03
2023-02-01T11:44:17.717Z,100214.84
2023-02-01T11:45:28.911Z,100206.69
2023-02-01T11:46:34.592Z,100230.63
2023-02-01T11:47:42.538Z,100193.59
2023-02-01T11:48:44.644Z,100222.47
2023-02-01T11:49:47.817Z,100220.91
2023-02-01T11:51:06.931Z,100210.88
2023-02-01T11:52:22.139Z,100210.09
2023-02-01T11:53:42.521Z,100211.19
2023-02-01T11:55:04.616Z,100211.69
2023-02-01T11:56:17.926Z,100223.53
2023-02-01T11:57:35.217Z,100207.31
2023-02-01T11:58:55.903Z,100224.19
2023-02-01T12:00:09.735Z,100201.13
2023-02-01T12:01:27.207Z,100186.44
2023-02-01T12:02:53.783Z,100217.34
2023-02-01T12:04:16.137Z,100183.81
2023-02-01T12:05:33.455Z,100210.06
2023-02-01T12:06:47.937Z,100176.09
2023-02-01T12:08:10.900Z,100180.47
2023-02-01T12:09:34.962Z,100175.84
2023-02-01T12:10:50.454Z,100206.78
2023-02-01T12:12:07.191Z,100207.38
2023-02-01T12:13:22.466Z,100208.72
2023-02-01T12:14:38.782Z,100194.31
2023-02-01T12:15:55.467Z,100189.41
2023-02-01T12:17:29.118Z,100191.06
2023-02-01T12:18:47.727Z,100201.09
2023-02-01T12:20:05.445Z,100200.84
2023-02-01T12:21:24.559Z,100166.84
2023-02-01T12:22:44.285Z,100190.50
2023-02-01T12:24:02.560Z,100200.84
2023-02-01T12:25:22.550Z,100193.16
2023-02-01T12:26:46.210Z,100201.06
2023-02-01T12:28:08.541Z,100201.84
2023-02-01T12:29:47.147Z,100208.44
2023-02-01T12:31:30.596Z,100198.66
2023-02-01T12:32:53.814Z,100191.00
2023-02-01T12:34:14.666Z,100187.66
2023-02-01T12:35:48.287Z,100156.03
2023-02-01T12:36:59.372Z,100181.03
2023-02-01T12:38:16.644Z,100229.47
2023-02-01T12:39:26.296Z,100174.94
2023-02-01T12:40:44.082Z,100161.63